createdAt,value
2023-01-13T00:00:41.578Z,98342.66
2023-01-13T00:01:38.476Z,98357.47
2023-01-13T00:02:38.193Z,98393.56
2023-01-13T00:03:35.685Z,98355.28
2023-01-13T00:04:35.214Z,98369.38
2023-01-13T00:05:32.078Z,98372.97
2023-01-13T00:06:29.491Z,98370.41
2023-01-13T00:07:26.279Z,98375.69
2023-01-13T00:08:23.332Z,98367.91
2023-01-13T00:09:24.865Z,98361.88
2023-01-13T00:10:22.385Z,98378.75
2023-01-13T00:11:20.174Z,98357.91
2023-01-13T00:12:20.296Z,98361.53
2023-01-13T00:13:26.870Z,98351.09
2023-01-13T00:14:27.162Z,98362.50
2023-01-13T00:15:23.846Z,98387.84
2023-01-13T00:16:23.067Z,98365.09
2023-01-13T00:17:20.218Z,98339.66
2023-01-13T00:18:27.325Z,98355.38
2023-01-13T00:19:24.075Z,98341.41
2023-01-13T00:20:21.119Z,98345.72
2023-01-13T00:21:22.491Z,98367.47
2023-01-13T00:22:19.123Z,98342.06
2023-01-13T00:23:16.135Z,98343.81
2023-01-13T00:24:16.477Z,98338.53
2023-01-13T00:25:16.146Z,98340.25
2023-01-13T00:26:14.909Z,98341.97
2023-01-13T00:27:11.662Z,98345.47
2023-01-13T00:28:11.075Z,98343.63
2023-01-13T00:29:07.860Z,98340.13
2023-01-13T00:30:05.710Z,98336.59
2023-01-13T00:31:25.963Z,98348.88
2023-01-13T00:32:22.852Z,98333.03
2023-01-13T00:33:19.825Z,98361.09
2023-01-13T00:34:16.547Z,98346.25
2023-01-13T00:35:13.332Z,98327.94
2023-01-13T00:36:18.293Z,98330.56
2023-01-13T00:37:15.025Z,98337.56
2023-01-13T00:38:11.716Z,98332.38
2023-01-13T00:39:08.472Z,98341.16
2023-01-13T00:40:08.419Z,98323.56
2023-01-13T00:41:06.941Z,98347.13
2023-01-13T00:42:23.426Z,98327.84
2023-01-13T00:43:23.273Z,98327.78
2023-01-13T00:44:19.968Z,98333.91
2023-01-13T00:45:16.671Z,98326.09
2023-01-13T00:46:15.040Z,98345.28
2023-01-13T00:47:12.231Z,98344.47
2023-01-13T00:48:09.223Z,98331.16
2023-01-13T00:49:06.067Z,98340.81
2023-01-13T00:50:02.858Z,98335.59
2023-01-13T00:51:04.234Z,98361.06
2023-01-13T00:52:01.291Z,98336.72
2023-01-13T00:53:01.423Z,98383.13
2023-01-13T00:53:58.664Z,98345.59
2023-01-13T00:54:58.809Z,98347.50
2023-01-13T00:56:05.982Z,98337.09
2023-01-13T00:57:04.359Z,98354.63
2023-01-13T00:58:03.390Z,98343.31
2023-01-13T00:59:00.182Z,98346.72
2023-01-13T00:59:56.934Z,98337.97
2023-01-13T01:00:53.793Z,98347.63
2023-01-13T01:01:50.704Z,98330.22
2023-01-13T01:02:47.783Z,98331.09
2023-01-13T01:03:44.949Z,98330.38
2023-01-13T01:04:41.718Z,98334.78
2023-01-13T01:05:39.594Z,98333.19
2023-01-13T01:06:36.484Z,98337.69
2023-01-13T01:07:33.299Z,98338.66
2023-01-13T01:08:29.955Z,98348.38
2023-01-13T01:09:32.888Z,98345.06
2023-01-13T01:10:30.072Z,98367.88
2023-01-13T01:11:30.756Z,98343.50
2023-01-13T01:12:27.420Z,98363.69
2023-01-13T01:13:24.034Z,98341.91
2023-01-13T01:14:20.824Z,98348.97
2023-01-13T01:15:17.688Z,98348.16
2023-01-13T01:16:15.942Z,98339.47
2023-01-13T01:17:12.626Z,98348.28
2023-01-13T01:18:09.252Z,98348.34
2023-01-13T01:19:05.984Z,98352.78
2023-01-13T01:20:04.269Z,98341.53
2023-01-13T01:21:01.014Z,98349.38
2023-01-13T01:21:57.770Z,98345.97
2023-01-13T01:22:54.626Z,98316.25
2023-01-13T01:23:51.304Z,98325.03
2023-01-13T01:24:47.916Z,98319.88
2023-01-13T01:25:44.658Z,98333.97
2023-01-13T01:26:41.911Z,98339.31
2023-01-13T01:27:38.653Z,98367.34
2023-01-13T01:28:35.438Z,98348.19
2023-01-13T01:29:32.220Z,98331.56
2023-01-13T01:30:28.956Z,98328.91
2023-01-13T01:31:27.270Z,98328.00
2023-01-13T01:32:24.161Z,98322.78
2023-01-13T01:33:21.259Z,98306.97
2023-01-13T01:34:18.035Z,98319.16
2023-01-13T01:35:14.737Z,98299.06
2023-01-13T01:36:12.099Z,98313.91
2023-01-13T01:37:08.849Z,98341.91
2023-01-13T01:38:05.927Z,98332.25
2023-01-13T01:39:06.537Z,98336.63
2023-01-13T01:40:03.561Z,98335.72
2023-01-13T01:41:00.289Z,98334.88
2023-01-13T01:42:16.072Z,98331.34
2023-01-13T01:43:39.007Z,98327.88
2023-01-13T01:44:41.642Z,98318.28
2023-01-13T01:45:38.669Z,98319.13
2023-01-13T01:46:42.439Z,98333.22
2023-01-13T01:47:39.242Z,98334.94
2023-01-13T01:48:40.461Z,98343.66
2023-01-13T01:49:37.327Z,98342.78
2023-01-13T01:50:34.114Z,98335.81
2023-01-13T01:51:32.878Z,98347.19
2023-01-13T01:52:40.662Z,98339.38
2023-01-13T01:53:37.492Z,98334.94
2023-01-13T01:54:48.004Z,98326.28
2023-01-13T01:55:44.699Z,98339.38
2023-01-13T01:56:41.830Z,98332.34
2023-01-13T01:57:55.443Z,98338.50
2023-01-13T01:58:52.223Z,98335.91
2023-01-13T01:59:49.338Z,98334.22
2023-01-13T02:00:46.035Z,98342.88
2023-01-13T02:01:42.915Z,98348.97
2023-01-13T02:02:40.039Z,98340.19
2023-01-13T02:03:37.442Z,98335.75
2023-01-13T02:04:36.555Z,98321.69
2023-01-13T02:05:34.421Z,98324.38
2023-01-13T02:06:31.094Z,98337.47
2023-01-13T02:07:29.670Z,98323.50
2023-01-13T02:08:26.367Z,98348.84
2023-01-13T02:09:23.098Z,98334.81
2023-01-13T02:10:24.291Z,98324.38
2023-01-13T02:12:06.252Z,98331.38
2023-01-13T02:13:06.289Z,98340.97
2023-01-13T02:14:05.893Z,98329.72
2023-01-13T02:15:03.823Z,98342.00
2023-01-13T02:16:06.470Z,98342.09
2023-01-13T02:17:21.478Z,98343.75
2023-01-13T02:18:37.591Z,98355.91
2023-01-13T02:20:21.769Z,98337.72
2023-01-13T02:21:37.084Z,98335.31
2023-01-13T02:23:09.254Z,98327.47
2023-01-13T02:24:50.779Z,98335.44
2023-01-13T02:26:24.288Z,98338.16
2023-01-13T02:27:54.716Z,98335.59
2023-01-13T02:29:28.483Z,98325.94
2023-01-13T02:30:46.787Z,98329.41
2023-01-13T02:31:43.792Z,98331.16
2023-01-13T02:33:32.300Z,98323.31
2023-01-13T02:34:38.476Z,98330.34
2023-01-13T02:35:58.543Z,98325.13
2023-01-13T02:37:00.337Z,98324.13
2023-01-13T02:37:57.086Z,98342.34
2023-01-13T02:39:14.293Z,98338.81
2023-01-13T02:40:27.993Z,98328.28
2023-01-13T02:41:50.553Z,98334.31
2023-01-13T02:43:40.979Z,98321.19
2023-01-13T02:44:44.437Z,98318.56
2023-01-13T02:45:56.920Z,98305.47
2023-01-13T02:47:20.562Z,98299.28
2023-01-13T02:48:17.340Z,98301.03
2023-01-13T02:49:17.271Z,98307.94
2023-01-13T02:50:19.190Z,98296.66
2023-01-13T02:51:18.373Z,98302.84
2023-01-13T02:52:39.583Z,98299.53
2023-01-13T02:53:39.479Z,98311.00
2023-01-13T02:54:36.204Z,98320.63
2023-01-13T02:55:41.546Z,98304.09
2023-01-13T02:56:40.694Z,98305.03
2023-01-13T02:57:37.482Z,98301.63
2023-01-13T02:58:35.205Z,98325.22
2023-01-13T02:59:31.941Z,98312.22
2023-01-13T03:00:28.794Z,98318.34
2023-01-13T03:01:25.648Z,98316.56
2023-01-13T03:02:22.725Z,98313.97
2023-01-13T03:03:19.484Z,98310.50
2023-01-13T03:04:44.782Z,98305.22
2023-01-13T03:05:42.466Z,98310.47
2023-01-13T03:06:54.133Z,98308.66
2023-01-13T03:08:01.787Z,98312.97
2023-01-13T03:09:07.266Z,98296.41
2023-01-13T03:10:09.770Z,98312.97
2023-01-13T03:11:08.460Z,98301.63
2023-01-13T03:12:21.193Z,98311.22
2023-01-13T03:13:33.083Z,98299.81
2023-01-13T03:14:50.368Z,98317.28
2023-01-13T03:16:28.100Z,98309.34
2023-01-13T03:17:30.479Z,98311.94
2023-01-13T03:18:50.982Z,98314.50
2023-01-13T03:20:05.942Z,98319.59
2023-01-13T03:21:25.945Z,98311.66
2023-01-13T03:22:37.712Z,98305.56
2023-01-13T03:23:38.175Z,98294.22
2023-01-13T03:24:35.925Z,98302.94
2023-01-13T03:25:53.739Z,98311.56
2023-01-13T03:27:05.802Z,98293.19
2023-01-13T03:28:07.324Z,98296.56
2023-01-13T03:29:24.919Z,98295.66
2023-01-13T03:30:27.293Z,98290.41
2023-01-13T03:31:27.670Z,98304.44
2023-01-13T03:32:34.610Z,98299.22
2023-01-13T03:33:36.698Z,98287.94
2023-01-13T03:34:36.169Z,98296.75
2023-01-13T03:35:37.951Z,98291.56
2023-01-13T03:36:35.115Z,98295.06
2023-01-13T03:37:34.929Z,98285.50
2023-01-13T03:38:33.782Z,98279.44
2023-01-13T03:39:33.201Z,98279.50
2023-01-13T03:40:33.020Z,98302.16
2023-01-13T03:41:41.675Z,98299.66
2023-01-13T03:42:38.393Z,98282.13
2023-01-13T03:44:22.590Z,98286.47
2023-01-13T03:45:19.434Z,98290.94
2023-01-13T03:46:22.257Z,98300.56
2023-01-13T03:47:44.586Z,98291.03
2023-01-13T03:48:41.396Z,98302.38
2023-01-13T03:49:47.136Z,98315.53
2023-01-13T03:50:48.412Z,98303.38
2023-01-13T03:51:47.788Z,98311.22
2023-01-13T03:52:48.040Z,98305.97
2023-01-13T03:53:51.311Z,98306.81
2023-01-13T03:54:53.896Z,98312.09
2023-01-13T03:55:52.645Z,98309.47
2023-01-13T03:56:56.012Z,98304.28
2023-01-13T03:58:14.463Z,98297.38
2023-01-13T03:59:21.657Z,98289.63
2023-01-13T04:00:20.412Z,98301.81
2023-01-13T04:01:25.807Z,98292.28
2023-01-13T04:02:29.203Z,98294.84
2023-01-13T04:03:44.283Z,98288.81
2023-01-13T04:05:03.403Z,98309.78
2023-01-13T04:06:18.340Z,98299.31
2023-01-13T04:07:31.955Z,98314.16
2023-01-13T04:08:28.742Z,98301.97
2023-01-13T04:09:32.434Z,98309.88
2023-01-13T04:10:51.957Z,98310.81
2023-01-13T04:12:08.983Z,98302.09
2023-01-13T04:13:07.983Z,98305.56
2023-01-13T04:14:05.024Z,98316.03
2023-01-13T04:15:01.772Z,98315.19
2023-01-13T04:15:59.033Z,98312.56
2023-01-13T04:16:57.739Z,98311.63
2023-01-13T04:17:54.666Z,98315.97
2023-01-13T04:18:51.446Z,98327.38
2023-01-13T04:19:48.148Z,98326.53
2023-01-13T04:20:46.030Z,98320.34
2023-01-13T04:21:42.770Z,98314.16
2023-01-13T04:22:39.539Z,98328.94
2023-01-13T04:23:36.322Z,98328.94
2023-01-13T04:24:33.543Z,98325.44
2023-01-13T04:25:43.072Z,98326.25
2023-01-13T04:26:40.183Z,98314.91
2023-01-13T04:27:36.932Z,98307.94
2023-01-13T04:28:35.172Z,98302.69
2023-01-13T04:29:32.168Z,98300.88
2023-01-13T04:30:28.894Z,98297.41
2023-01-13T04:31:25.705Z,98293.97
2023-01-13T04:32:22.535Z,98286.13
2023-01-13T04:33:19.393Z,98296.66
2023-01-13T04:34:28.364Z,98305.31
2023-01-13T04:35:25.815Z,98309.66
2023-01-13T04:36:27.601Z,98310.56
2023-01-13T04:37:24.442Z,98305.28
2023-01-13T04:38:21.568Z,98300.00
2023-01-13T04:39:18.259Z,98300.94
2023-01-13T04:40:15.093Z,98300.94
2023-01-13T04:41:11.923Z,98309.66
2023-01-13T04:42:08.703Z,98300.00
2023-01-13T04:43:05.472Z,98311.28
2023-01-13T04:44:04.955Z,98298.25
2023-01-13T04:45:01.794Z,98300.00
2023-01-13T04:45:58.652Z,98305.28
2023-01-13T04:46:55.377Z,98306.13
2023-01-13T04:47:52.220Z,98290.47
2023-01-13T04:48:49.088Z,98307.84
2023-01-13T04:49:45.839Z,98296.44
2023-01-13T04:50:42.621Z,98305.13
2023-01-13T04:51:39.588Z,98302.50
2023-01-13T04:52:36.430Z,98315.59
2023-01-13T04:53:33.305Z,98312.91
2023-01-13T04:54:30.121Z,98305.88
2023-01-13T04:55:26.870Z,98313.72
2023-01-13T04:56:23.953Z,98320.69
2023-01-13T04:57:20.600Z,98320.72
2023-01-13T04:58:17.446Z,98305.84
2023-01-13T04:59:14.339Z,98313.56
2023-01-13T05:00:12.444Z,98320.53
2023-01-13T05:01:09.320Z,98325.69
2023-01-13T05:02:08.972Z,98316.03
2023-01-13T05:03:05.794Z,98308.09
2023-01-13T05:04:06.515Z,98314.28
2023-01-13T05:05:03.386Z,98296.75
2023-01-13T05:06:00.110Z,98296.72
2023-01-13T05:06:57.087Z,98288.88
2023-01-13T05:07:53.870Z,98308.91
2023-01-13T05:08:51.050Z,98289.75
2023-01-13T05:09:47.741Z,98307.22
2023-01-13T05:10:44.404Z,98290.63
2023-01-13T05:12:00.575Z,98305.47
2023-01-13T05:13:16.228Z,98288.88
2023-01-13T05:14:31.837Z,98282.72
2023-01-13T05:15:47.280Z,98280.97
2023-01-13T05:17:02.943Z,98287.94
2023-01-13T05:17:59.972Z,98288.78
2023-01-13T05:18:56.737Z,98285.31
2023-01-13T05:19:53.558Z,98273.06
2023-01-13T05:20:50.964Z,98292.22
2023-01-13T05:22:06.229Z,98283.56
2023-01-13T05:23:21.799Z,98280.97
2023-01-13T05:24:37.071Z,98290.63
2023-01-13T05:25:34.897Z,98304.59
2023-01-13T05:26:31.609Z,98302.00
2023-01-13T05:27:28.539Z,98283.66
2023-01-13T05:28:25.249Z,98302.03
2023-01-13T05:29:22.184Z,98295.00
2023-01-13T05:30:20.063Z,98281.13
2023-01-13T05:31:16.772Z,98295.13
2023-01-13T05:32:13.445Z,98302.94
2023-01-13T05:33:14.740Z,98299.44
2023-01-13T05:34:11.521Z,98293.34
2023-01-13T05:35:08.772Z,98314.31
2023-01-13T05:36:05.893Z,98309.94
2023-01-13T05:37:03.400Z,98306.38
2023-01-13T05:38:00.554Z,98313.41
2023-01-13T05:38:57.416Z,98304.59
2023-01-13T05:40:13.473Z,98312.47
2023-01-13T05:41:28.809Z,98316.00
2023-01-13T05:42:43.979Z,98322.97
2023-01-13T05:43:40.781Z,98317.72
2023-01-13T05:44:37.841Z,98337.72
2023-01-13T05:45:34.762Z,98325.50
2023-01-13T05:46:31.801Z,98312.38
2023-01-13T05:47:28.531Z,98325.41
2023-01-13T05:48:27.633Z,98321.91
2023-01-13T05:49:24.720Z,98332.34
2023-01-13T05:50:21.583Z,98361.16
2023-01-13T05:51:19.718Z,98331.44
2023-01-13T05:52:16.652Z,98334.84
2023-01-13T05:53:13.535Z,98321.78
2023-01-13T05:54:10.231Z,98328.84
2023-01-13T05:55:07.367Z,98320.19
2023-01-13T05:56:05.432Z,98329.84
2023-01-13T05:57:02.808Z,98330.72
2023-01-13T05:58:00.178Z,98331.59
2023-01-13T05:58:56.899Z,98338.72
2023-01-13T05:59:53.740Z,98337.03
2023-01-13T06:00:50.554Z,98342.34
2023-01-13T06:01:47.437Z,98337.19
2023-01-13T06:02:44.400Z,98346.81
2023-01-13T06:03:41.679Z,98352.88
2023-01-13T06:04:38.715Z,98342.34
2023-01-13T06:05:35.899Z,98332.75
2023-01-13T06:06:32.824Z,98344.13
2023-01-13T06:07:29.760Z,98345.94
2023-01-13T06:08:26.978Z,98341.66
2023-01-13T06:09:23.796Z,98351.31
2023-01-13T06:10:20.976Z,98346.94
2023-01-13T06:11:17.953Z,98346.81
2023-01-13T06:12:14.769Z,98349.31
2023-01-13T06:13:11.664Z,98340.59
2023-01-13T06:14:08.538Z,98336.25
2023-01-13T06:15:05.955Z,98327.59
2023-01-13T06:16:03.123Z,98329.41
2023-01-13T06:17:00.222Z,98324.16
2023-01-13T06:17:57.587Z,98328.47
2023-01-13T06:18:54.854Z,98344.13
2023-01-13T06:19:51.791Z,98340.63
2023-01-13T06:20:48.788Z,98335.25
2023-01-13T06:21:45.725Z,98339.66
2023-01-13T06:22:43.892Z,98337.88
2023-01-13T06:23:41.017Z,98325.63
2023-01-13T06:24:38.027Z,98391.78
2023-01-13T06:25:34.783Z,98341.13
2023-01-13T06:26:33.663Z,98369.03
2023-01-13T06:27:30.811Z,98359.38
2023-01-13T06:28:27.657Z,98372.50
2023-01-13T06:29:24.496Z,98367.28
2023-01-13T06:30:21.360Z,98354.28
2023-01-13T06:31:18.330Z,98374.31
2023-01-13T06:32:21.644Z,98356.00
2023-01-13T06:33:21.242Z,98360.47
2023-01-13T06:34:18.617Z,98348.28
2023-01-13T06:35:16.185Z,98354.50
2023-01-13T06:36:15.853Z,98351.13
2023-01-13T06:37:13.165Z,98354.66
2023-01-13T06:38:10.943Z,98370.44
2023-01-13T06:39:07.615Z,98355.63
2023-01-13T06:40:05.504Z,98353.91
2023-01-13T06:41:02.463Z,98352.19
2023-01-13T06:42:18.015Z,98354.81
2023-01-13T06:43:17.926Z,98364.41
2023-01-13T06:44:14.978Z,98364.41
2023-01-13T06:45:11.767Z,98362.66
2023-01-13T06:46:08.614Z,98366.09
2023-01-13T06:47:05.387Z,98367.00
2023-01-13T06:48:02.225Z,98373.97
2023-01-13T06:48:58.892Z,98380.09
2023-01-13T06:49:55.599Z,98371.38
2023-01-13T06:50:52.606Z,98394.16
2023-01-13T06:51:49.697Z,98390.69
2023-01-13T06:52:46.405Z,98390.75
2023-01-13T06:53:43.200Z,98385.53
2023-01-13T06:54:39.935Z,98389.06
2023-01-13T06:55:36.903Z,98385.63
2023-01-13T06:56:35.422Z,98417.97
2023-01-13T06:57:32.329Z,98417.97
2023-01-13T06:58:29.303Z,98402.22
2023-01-13T06:59:26.040Z,98411.88
2023-01-13T07:00:23.537Z,98402.31
2023-01-13T07:01:20.510Z,98395.31
2023-01-13T07:02:17.582Z,98403.16
2023-01-13T07:03:15.914Z,98406.66
2023-01-13T07:04:13.659Z,98402.34
2023-01-13T07:05:10.386Z,98403.28
2023-01-13T07:06:07.661Z,98397.22
2023-01-13T07:07:04.725Z,98402.47
2023-01-13T07:08:01.627Z,98412.06
2023-01-13T07:08:58.360Z,98412.06
2023-01-13T07:09:55.093Z,98398.94
2023-01-13T07:10:53.051Z,98406.81
2023-01-13T07:11:52.891Z,98399.81
2023-01-13T07:13:09.888Z,98402.47
2023-01-13T07:14:25.198Z,98406.91
2023-01-13T07:15:22.060Z,98399.03
2023-01-13T07:16:18.936Z,98407.81
2023-01-13T07:17:15.895Z,98411.31
2023-01-13T07:18:12.581Z,98399.97
2023-01-13T07:19:09.406Z,98408.69
2023-01-13T07:20:06.787Z,98416.50
2023-01-13T07:21:05.501Z,98414.81
2023-01-13T07:22:02.317Z,98406.13
2023-01-13T07:22:59.095Z,98394.81
2023-01-13T07:23:56.030Z,98409.63
2023-01-13T07:24:53.270Z,98420.97
2023-01-13T07:25:50.715Z,98407.88
2023-01-13T07:26:47.579Z,98408.75
2023-01-13T07:27:44.542Z,98415.78
2023-01-13T07:28:41.834Z,98417.53
2023-01-13T07:29:38.790Z,98404.44
2023-01-13T07:30:35.779Z,98408.84
2023-01-13T07:31:32.909Z,98409.75
2023-01-13T07:32:32.878Z,98409.78
2023-01-13T07:33:33.199Z,98402.91
2023-01-13T07:34:30.196Z,98395.06
2023-01-13T07:35:26.990Z,98405.47
2023-01-13T07:36:23.748Z,98414.25
2023-01-13T07:37:20.505Z,98410.81
2023-01-13T07:38:17.582Z,98414.28
2023-01-13T07:39:14.587Z,98410.75
2023-01-13T07:40:12.753Z,98409.00
2023-01-13T07:41:31.273Z,98408.97
2023-01-13T07:42:49.048Z,98404.59
2023-01-13T07:43:45.882Z,98409.75
2023-01-13T07:44:42.746Z,98405.38
2023-01-13T07:45:39.677Z,98410.56
2023-01-13T07:46:39.945Z,98399.16
2023-01-13T07:47:39.567Z,98399.09
2023-01-13T07:48:36.387Z,98397.38
2023-01-13T07:49:33.273Z,98404.38
2023-01-13T07:50:30.117Z,98414.78
2023-01-13T07:51:27.038Z,98402.53
2023-01-13T07:52:23.818Z,98412.13
2023-01-13T07:53:21.238Z,98406.91
2023-01-13T07:54:19.321Z,98413.88
2023-01-13T07:55:16.375Z,98418.19
2023-01-13T07:56:16.027Z,98415.59
2023-01-13T07:57:12.936Z,98410.34
2023-01-13T07:58:10.502Z,98410.31
2023-01-13T07:59:09.305Z,98425.09
2023-01-13T08:00:06.618Z,98418.16
2023-01-13T08:01:13.433Z,98425.97
2023-01-13T08:02:13.521Z,98432.84
2023-01-13T08:03:10.741Z,98447.56
2023-01-13T08:04:08.047Z,98428.28
2023-01-13T08:05:05.626Z,98420.38
2023-01-13T08:06:02.548Z,98420.34
2023-01-13T08:06:59.383Z,98438.56
2023-01-13T08:07:56.348Z,98425.47
2023-01-13T08:08:53.221Z,98428.94
2023-01-13T08:09:50.203Z,98418.41
2023-01-13T08:10:46.921Z,98449.84
2023-01-13T08:11:43.645Z,98430.63
2023-01-13T08:12:58.923Z,98447.16
2023-01-13T08:13:57.643Z,98458.50
2023-01-13T08:14:54.554Z,98457.50
2023-01-13T08:15:53.023Z,98459.19
2023-01-13T08:16:49.871Z,98456.56
2023-01-13T08:17:49.725Z,98464.41
2023-01-13T08:18:46.869Z,98444.25
2023-01-13T08:19:43.644Z,98458.09
2023-01-13T08:20:40.843Z,98456.31
2023-01-13T08:21:37.678Z,98471.13
2023-01-13T08:22:34.725Z,98463.19
2023-01-13T08:23:31.612Z,98462.28
2023-01-13T08:24:28.388Z,98464.81
2023-01-13T08:25:26.580Z,98478.78
2023-01-13T08:26:23.541Z,98503.25
2023-01-13T08:27:20.760Z,98483.09
2023-01-13T08:28:17.703Z,98496.19
2023-01-13T08:29:15.140Z,98495.19
2023-01-13T08:30:12.359Z,98508.28
2023-01-13T08:31:14.169Z,98487.31
2023-01-13T08:32:10.951Z,98496.94
2023-01-13T08:33:09.116Z,98510.03
2023-01-13T08:34:06.020Z,98501.25
2023-01-13T08:35:06.035Z,98485.44
2023-01-13T08:36:04.591Z,98495.94
2023-01-13T08:37:01.474Z,98489.88
2023-01-13T08:37:58.255Z,98501.25
2023-01-13T08:38:55.057Z,98503.91
2023-01-13T08:39:52.037Z,98488.19
2023-01-13T08:40:48.867Z,98504.78
2023-01-13T08:41:58.917Z,98504.72
2023-01-13T08:42:56.688Z,98498.59
2023-01-13T08:43:53.830Z,98504.72
2023-01-13T08:44:50.562Z,98502.03
2023-01-13T08:45:58.329Z,98527.44
2023-01-13T08:46:57.253Z,98485.44
2023-01-13T08:47:55.399Z,98521.31
2023-01-13T08:48:56.818Z,98509.13
2023-01-13T08:49:55.816Z,98496.06
2023-01-13T08:50:53.361Z,98499.41
2023-01-13T08:51:50.565Z,98479.31
2023-01-13T08:52:47.506Z,98488.06
2023-01-13T08:53:44.329Z,98492.50
2023-01-13T08:54:41.292Z,98506.47
2023-01-13T08:55:38.116Z,98494.22
2023-01-13T08:56:35.692Z,98485.41
2023-01-13T08:57:32.725Z,98483.63
2023-01-13T08:58:29.686Z,98501.88
2023-01-13T08:59:26.799Z,98516.69
2023-01-13T09:00:23.625Z,98486.06
2023-01-13T09:01:22.503Z,98483.44
2023-01-13T09:02:21.020Z,98483.31
2023-01-13T09:03:17.933Z,98489.34
2023-01-13T09:04:19.886Z,98492.91
2023-01-13T09:05:17.838Z,98481.59
2023-01-13T09:06:14.826Z,98491.25
2023-01-13T09:07:11.565Z,98495.53
2023-01-13T09:08:08.289Z,98491.09
2023-01-13T09:09:04.969Z,98494.56
2023-01-13T09:10:04.308Z,98490.06
2023-01-13T09:11:00.987Z,98499.69
2023-01-13T09:12:16.675Z,98486.56
2023-01-13T09:13:13.790Z,98492.50
2023-01-13T09:14:10.766Z,98499.38
2023-01-13T09:15:07.686Z,98484.38
2023-01-13T09:16:04.630Z,98502.75
2023-01-13T09:17:01.656Z,98485.28
2023-01-13T09:17:58.513Z,98491.31
2023-01-13T09:18:55.262Z,98505.50
2023-01-13T09:19:52.092Z,98531.88
2023-01-13T09:20:48.831Z,98527.59
2023-01-13T09:21:45.656Z,98508.34
2023-01-13T09:22:42.688Z,98494.28
2023-01-13T09:23:39.547Z,98518.69
2023-01-13T09:24:36.350Z,98490.75
2023-01-13T09:25:35.566Z,98485.50
2023-01-13T09:26:32.413Z,98520.53
2023-01-13T09:27:29.348Z,98512.56
2023-01-13T09:28:26.051Z,98509.13
2023-01-13T09:29:23.487Z,98470.50
2023-01-13T09:30:20.362Z,98507.31
2023-01-13T09:31:17.140Z,98489.88
2023-01-13T09:32:14.545Z,98487.25
2023-01-13T09:33:29.944Z,98488.13
2023-01-13T09:34:45.516Z,98512.53
2023-01-13T09:35:42.363Z,98502.84
2023-01-13T09:36:39.069Z,98502.00
2023-01-13T09:37:37.820Z,98549.25
2023-01-13T09:38:34.523Z,98512.47
2023-01-13T09:39:32.717Z,98520.28
2023-01-13T09:40:32.289Z,98498.38
2023-01-13T09:41:48.216Z,98503.56
2023-01-13T09:43:20.955Z,98497.44
2023-01-13T09:44:22.590Z,98531.47
2023-01-13T09:45:27.816Z,98495.66
2023-01-13T09:46:47.438Z,98517.56
2023-01-13T09:48:15.372Z,98506.34
2023-01-13T09:49:20.473Z,98513.25
2023-01-13T09:50:17.194Z,98512.25
2023-01-13T09:51:24.465Z,98521.06
2023-01-13T09:52:26.640Z,98504.34
2023-01-13T09:53:32.208Z,98515.72
2023-01-13T09:54:32.473Z,98529.88
2023-01-13T09:55:34.921Z,98515.00
2023-01-13T09:56:31.682Z,98523.88
2023-01-13T09:57:28.766Z,98509.03
2023-01-13T09:58:25.445Z,98523.75
2023-01-13T09:59:22.306Z,98508.72
2023-01-13T10:00:22.699Z,98506.97
2023-01-13T10:01:53.132Z,98519.22
2023-01-13T10:03:14.431Z,98516.66
2023-01-13T10:04:11.998Z,98494.97
2023-01-13T10:05:35.324Z,98502.75
2023-01-13T10:06:42.525Z,98481.75
2023-01-13T10:07:42.684Z,98501.03
2023-01-13T10:08:40.898Z,98490.50
2023-01-13T10:10:03.976Z,98512.06
2023-01-13T10:11:23.915Z,98503.22
2023-01-13T10:12:43.557Z,98501.13
2023-01-13T10:13:40.322Z,98507.81
2023-01-13T10:14:53.334Z,98481.41
2023-01-13T10:16:10.416Z,98503.34
2023-01-13T10:17:34.425Z,98499.16
2023-01-13T10:18:43.850Z,98489.63
2023-01-13T10:20:08.321Z,98509.94
2023-01-13T10:21:13.692Z,98493.41
2023-01-13T10:22:33.636Z,98495.19
2023-01-13T10:23:45.421Z,98514.44
2023-01-13T10:24:56.972Z,98521.50
2023-01-13T10:26:24.226Z,98525.81
2023-01-13T10:27:37.726Z,98526.59
2023-01-13T10:28:34.663Z,98514.41
2023-01-13T10:29:31.787Z,98516.97
2023-01-13T10:30:33.903Z,98505.59
2023-01-13T10:31:31.251Z,98541.47
2023-01-13T10:32:28.371Z,98502.94
2023-01-13T10:33:30.764Z,98513.22
2023-01-13T10:34:27.862Z,98507.84
2023-01-13T10:35:49.943Z,98529.03
2023-01-13T10:37:05.760Z,98544.69
2023-01-13T10:38:02.571Z,98527.91
2023-01-13T10:39:09.838Z,98505.03
2023-01-13T10:40:12.494Z,98527.00
2023-01-13T10:41:27.511Z,98546.44
2023-01-13T10:42:24.565Z,98506.16
2023-01-13T10:43:21.639Z,98580.31
2023-01-13T10:44:18.729Z,98519.63
2023-01-13T10:45:24.550Z,98537.03
2023-01-13T10:46:21.384Z,98529.94
2023-01-13T10:47:28.973Z,98541.22
2023-01-13T10:48:39.138Z,98551.81
2023-01-13T10:49:37.300Z,98533.66
2023-01-13T10:50:35.311Z,98520.28
2023-01-13T10:51:37.966Z,98525.34
2023-01-13T10:52:40.074Z,98557.72
2023-01-13T10:53:44.363Z,98555.78
2023-01-13T10:54:41.189Z,98539.03
2023-01-13T10:55:38.116Z,98555.88
2023-01-13T10:56:34.877Z,98605.19
2023-01-13T10:57:34.767Z,98522.75
2023-01-13T10:58:31.504Z,98550.91
2023-01-13T10:59:28.346Z,98529.69
2023-01-13T11:00:32.998Z,98548.09
2023-01-13T11:01:30.499Z,98530.44
2023-01-13T11:02:31.996Z,98547.97
2023-01-13T11:03:48.157Z,98579.78
2023-01-13T11:04:53.795Z,98553.09
2023-01-13T11:05:55.166Z,98561.00
2023-01-13T11:06:51.838Z,98551.41
2023-01-13T11:07:52.669Z,98531.31
2023-01-13T11:08:50.409Z,98540.22
2023-01-13T11:09:47.219Z,98563.69
2023-01-13T11:10:48.156Z,98541.81
2023-01-13T11:11:45.526Z,98551.50
2023-01-13T11:13:04.086Z,98568.97
2023-01-13T11:14:20.770Z,98589.13
2023-01-13T11:15:20.441Z,98560.28
2023-01-13T11:16:17.413Z,98548.13
2023-01-13T11:17:27.801Z,98555.06
2023-01-13T11:19:02.326Z,98618.03
2023-01-13T11:20:23.662Z,98572.47
2023-01-13T11:21:23.296Z,98552.31
2023-01-13T11:22:23.533Z,98555.78
2023-01-13T11:23:32.239Z,98569.81
2023-01-13T11:24:52.035Z,98568.66
2023-01-13T11:25:53.904Z,98549.28
2023-01-13T11:26:55.449Z,98549.13
2023-01-13T11:28:00.696Z,98568.69
2023-01-13T11:29:16.693Z,98541.72
2023-01-13T11:30:24.462Z,98573.44
2023-01-13T11:31:41.249Z,98560.38
2023-01-13T11:32:51.975Z,98557.75
2023-01-13T11:33:55.869Z,98549.69
2023-01-13T11:35:05.447Z,98569.91
2023-01-13T11:36:17.774Z,98549.84
2023-01-13T11:37:23.492Z,98550.03
2023-01-13T11:38:35.051Z,98575.72
2023-01-13T11:39:57.950Z,98563.16
2023-01-13T11:40:55.552Z,98555.50
2023-01-13T11:42:20.677Z,98560.88
2023-01-13T11:43:23.340Z,98566.22
2023-01-13T11:44:23.204Z,98571.47
2023-01-13T11:45:20.249Z,98569.72
2023-01-13T11:46:17.186Z,98588.09
2023-01-13T11:47:14.582Z,98546.16
2023-01-13T11:48:20.892Z,98557.41
2023-01-13T11:49:28.607Z,98555.56
2023-01-13T11:50:51.307Z,98561.63
2023-01-13T11:51:55.586Z,98588.66
2023-01-13T11:53:23.671Z,98582.53
2023-01-13T11:54:55.180Z,98531.69
2023-01-13T11:56:29.421Z,98557.03
2023-01-13T11:57:58.262Z,98562.16
2023-01-13T11:59:04.887Z,98576.03
2023-01-13T12:00:35.467Z,98568.94
2023-01-13T12:01:44.691Z,98581.94
2023-01-13T12:05:07.126Z,98588.06
2023-01-13T12:06:48.719Z,98560.88
2023-01-13T12:08:05.605Z,98561.78
2023-01-13T12:09:38.496Z,98557.47
2023-01-13T12:10:52.727Z,98585.50
2023-01-13T12:12:15.215Z,98539.09